Portada
METAR-TAF:

METAR-TAF

Aeropuertos :

Turaif, Arabia Saudita

latitud: 31-41N, longitud: 038-44E, altitud: 813 m

Observación

El informe se hizo hace 1 hora y 14 minutos, a las 11:00 UTC
Viento 6 kt del sur-sureste
Temperatura 18°C
Humedad 30%
Presión 1017 hPa
Visibilidad 10 km o más
sin nubes por debajo de 1500 m y sin presencia de cumulonimbus.

METAR: OETR 271100Z 15006KT CAVOK 18/00 Q1017 NOSIG

Hora: 15:14 (12:14 UTC)

Pronóstico

El informe se hizo hace 1 hora y 14 minutos, a las 11:00 UTC
Pronóstico válido del 27 a las 12 UTC al 28 a las 18 UTC
Viento 12 kt del este-sureste
Visibilidad 10 km o más
sin nubes por debajo de 1500 m y sin presencia de cumulonimbus.
Evolucionando progresivamente
del 27 a las 18 UTC al 27 a las 20 UTC
Viento 3 kt con dirección variable

TAF: OETR 271100Z 2712/2818 12012KT CAVOK BECMG 2718/2720 VRB03KT

Observaciones y pronósticos meteorológicos de más de 4000 aeropuertos (mensajes METAR y TAF).

Los puntos amarillos y rojos representan las estaciones disponibles.

Ponga el ratón en el punto deseado para ver el nombre de la estación.

Haga clic para ver las observaciones y los pronósticos meteorológicos.

Para cambiar el mapa : haga clic en los botones verdes con una cruz de color negro para hacer un zoom, en el botón verde con un guión para alejar o en las flechas verdes para mapas adyacentes.


METAR-TAF: